sensor_id;sensor_type;location;lat;lon;timestamp;P1;durP1;ratioP1;P2;durP2;ratioP2
65238;SDS011;51827;51.186;6.926;2022-08-11T00:00:34;2.00;;;1.38;;
65238;SDS011;51827;51.186;6.926;2022-08-11T00:01:38;1.70;;;1.30;;
65238;SDS011;51827;51.186;6.926;2022-08-11T00:02:47;2.53;;;1.58;;
65238;SDS011;51827;51.186;6.926;2022-08-11T00:04:55;1.77;;;1.40;;
65238;SDS011;51827;51.186;6.926;2022-08-11T00:06:01;2.00;;;1.20;;
65238;SDS011;51827;51.186;6.926;2022-08-11T00:07:05;2.33;;;1.40;;
65238;SDS011;51827;51.186;6.926;2022-08-11T00:08:06;2.08;;;1.40;;
65238;SDS011;51827;51.186;6.926;2022-08-11T00:09:09;1.38;;;1.10;;
65238;SDS011;51827;51.186;6.926;2022-08-11T00:10:13;2.17;;;1.40;;
65238;SDS011;51827;51.186;6.926;2022-08-11T00:11:18;1.70;;;1.33;;
65238;SDS011;51827;51.186;6.926;2022-08-11T00:12:23;1.95;;;1.20;;
65238;SDS011;51827;51.186;6.926;2022-08-11T00:13:33;2.53;;;1.48;;
65238;SDS011;51827;51.186;6.926;2022-08-11T00:14:35;2.30;;;1.50;;
65238;SDS011;51827;51.186;6.926;2022-08-11T00:15:43;1.70;;;1.20;;
65238;SDS011;51827;51.186;6.926;2022-08-11T00:17:57;1.90;;;1.33;;
65238;SDS011;51827;51.186;6.926;2022-08-11T00:18:59;2.47;;;1.50;;
65238;SDS011;51827;51.186;6.926;2022-08-11T00:20:02;2.67;;;1.70;;
65238;SDS011;51827;51.186;6.926;2022-08-11T00:21:06;1.50;;;1.10;;
65238;SDS011;51827;51.186;6.926;2022-08-11T00:23:09;2.23;;;1.30;;
65238;SDS011;51827;51.186;6.926;2022-08-11T00:24:11;1.70;;;1.20;;
65238;SDS011;51827;51.186;6.926;2022-08-11T00:25:20;2.65;;;1.60;;
65238;SDS011;51827;51.186;6.926;2022-08-11T00:26:27;1.83;;;1.35;;
65238;SDS011;51827;51.186;6.926;2022-08-11T00:27:34;2.50;;;1.40;;
65238;SDS011;51827;51.186;6.926;2022-08-11T00:28:35;1.75;;;1.27;;
65238;SDS011;51827;51.186;6.926;2022-08-11T00:29:36;2.13;;;1.50;;
65238;SDS011;51827;51.186;6.926;2022-08-11T00:30:37;2.27;;;1.50;;
65238;SDS011;51827;51.186;6.926;2022-08-11T00:31:42;2.00;;;1.40;;
65238;SDS011;51827;51.186;6.926;2022-08-11T00:32:51;2.00;;;1.40;;
65238;SDS011;51827;51.186;6.926;2022-08-11T00:33:54;1.95;;;1.40;;
65238;SDS011;51827;51.186;6.926;2022-08-11T00:34:56;2.50;;;1.30;;
65238;SDS011;51827;51.186;6.926;2022-08-11T00:35:58;1.85;;;1.30;;
65238;SDS011;51827;51.186;6.926;2022-08-11T00:37:07;1.90;;;1.40;;
65238;SDS011;51827;51.186;6.926;2022-08-11T00:38:17;1.85;;;1.23;;
65238;SDS011;51827;51.186;6.926;2022-08-11T00:39:23;2.10;;;1.35;;
65238;SDS011;51827;51.186;6.926;2022-08-11T00:40:27;1.85;;;1.30;;
65238;SDS011;51827;51.186;6.926;2022-08-11T00:41:38;1.63;;;1.23;;
65238;SDS011;51827;51.186;6.926;2022-08-11T00:47:01;2.00;;;1.40;;
65238;SDS011;51827;51.186;6.926;2022-08-11T00:48:28;1.52;;;1.30;;
65238;SDS011;51827;51.186;6.926;2022-08-11T00:49:45;2.15;;;1.40;;
65238;SDS011;51827;51.186;6.926;2022-08-11T01:02:44;1.90;;;1.40;;
65238;SDS011;51827;51.186;6.926;2022-08-11T01:08:38;1.77;;;1.30;;
65238;SDS011;51827;51.186;6.926;2022-08-11T01:16:33;1.77;;;1.27;;
65238;SDS011;51827;51.186;6.926;2022-08-11T01:39:51;2.03;;;1.40;;
65238;SDS011;51827;51.186;6.926;2022-08-11T01:42:26;1.83;;;1.40;;
65238;SDS011;51827;51.186;6.926;2022-08-11T01:44:01;1.58;;;1.20;;
65238;SDS011;51827;51.186;6.926;2022-08-11T01:46:52;2.65;;;1.35;;
65238;SDS011;51827;51.186;6.926;2022-08-11T01:49:38;2.28;;;1.60;;
65238;SDS011;51827;51.186;6.926;2022-08-11T01:58:22;2.72;;;1.40;;
65238;SDS011;51827;51.186;6.926;2022-08-11T01:59:37;2.00;;;1.60;;
65238;SDS011;51827;51.186;6.926;2022-08-11T02:02:25;2.28;;;1.40;;
65238;SDS011;51827;51.186;6.926;2022-08-11T02:05:06;1.40;;;1.23;;
65238;SDS011;51827;51.186;6.926;2022-08-11T02:06:29;2.28;;;1.40;;
65238;SDS011;51827;51.186;6.926;2022-08-11T02:18:31;2.08;;;1.35;;
65238;SDS011;51827;51.186;6.926;2022-08-11T02:20:49;2.17;;;1.35;;
65238;SDS011;51827;51.186;6.926;2022-08-11T02:21:59;1.92;;;1.33;;
65238;SDS011;51827;51.186;6.926;2022-08-11T02:24:19;2.28;;;1.40;;
65238;SDS011;51827;51.186;6.926;2022-08-11T02:26:54;1.55;;;1.23;;
65238;SDS011;51827;51.186;6.926;2022-08-11T02:29:28;1.85;;;1.40;;
65238;SDS011;51827;51.186;6.926;2022-08-11T02:30:32;1.73;;;1.30;;
65238;SDS011;51827;51.186;6.926;2022-08-11T02:36:05;2.53;;;1.33;;
65238;SDS011;51827;51.186;6.926;2022-08-11T02:37:13;1.48;;;1.13;;
65238;SDS011;51827;51.186;6.926;2022-08-11T02:38:20;2.00;;;1.30;;
65238;SDS011;51827;51.186;6.926;2022-08-11T02:39:28;2.22;;;1.40;;
65238;SDS011;51827;51.186;6.926;2022-08-11T02:41:43;1.77;;;1.33;;
65238;SDS011;51827;51.186;6.926;2022-08-11T02:42:59;1.88;;;1.27;;
65238;SDS011;51827;51.186;6.926;2022-08-11T02:46:54;2.38;;;1.40;;
65238;SDS011;51827;51.186;6.926;2022-08-11T02:49:32;1.80;;;1.10;;
65238;SDS011;51827;51.186;6.926;2022-08-11T02:51:03;1.95;;;1.23;;
65238;SDS011;51827;51.186;6.926;2022-08-11T02:52:28;2.53;;;1.48;;
65238;SDS011;51827;51.186;6.926;2022-08-11T02:56:23;6.93;;;2.00;;
65238;SDS011;51827;51.186;6.926;2022-08-11T02:57:33;4.50;;;2.10;;
65238;SDS011;51827;51.186;6.926;2022-08-11T02:58:58;4.10;;;1.80;;
65238;SDS011;51827;51.186;6.926;2022-08-11T03:00:10;3.17;;;2.00;;
65238;SDS011;51827;51.186;6.926;2022-08-11T03:01:15;6.00;;;2.00;;
65238;SDS011;51827;51.186;6.926;2022-08-11T03:11:41;3.87;;;2.23;;
65238;SDS011;51827;51.186;6.926;2022-08-11T03:14:21;4.63;;;2.30;;
65238;SDS011;51827;51.186;6.926;2022-08-11T03:15:29;3.95;;;2.47;;
65238;SDS011;51827;51.186;6.926;2022-08-11T03:16:37;3.83;;;2.72;;
65238;SDS011;51827;51.186;6.926;2022-08-11T03:20:50;3.58;;;2.10;;
65238;SDS011;51827;51.186;6.926;2022-08-11T03:23:29;6.85;;;2.30;;
65238;SDS011;51827;51.186;6.926;2022-08-11T03:24:48;3.88;;;2.38;;
65238;SDS011;51827;51.186;6.926;2022-08-11T03:28:26;4.20;;;2.05;;
65238;SDS011;51827;51.186;6.926;2022-08-11T03:29:34;6.85;;;2.35;;
65238;SDS011;51827;51.186;6.926;2022-08-11T03:30:41;4.20;;;2.55;;
65238;SDS011;51827;51.186;6.926;2022-08-11T03:31:47;3.30;;;2.40;;
65238;SDS011;51827;51.186;6.926;2022-08-11T03:34:17;4.15;;;2.47;;
65238;SDS011;51827;51.186;6.926;2022-08-11T03:35:44;4.10;;;2.47;;
65238;SDS011;51827;51.186;6.926;2022-08-11T03:38:18;7.32;;;2.20;;
65238;SDS011;51827;51.186;6.926;2022-08-11T03:40:53;4.72;;;2.50;;
65238;SDS011;51827;51.186;6.926;2022-08-11T03:42:09;4.25;;;2.40;;
65238;SDS011;51827;51.186;6.926;2022-08-11T03:45:51;6.90;;;2.60;;
65238;SDS011;51827;51.186;6.926;2022-08-11T03:47:26;4.22;;;2.22;;
65238;SDS011;51827;51.186;6.926;2022-08-11T03:50:32;6.15;;;2.67;;
65238;SDS011;51827;51.186;6.926;2022-08-11T04:06:16;5.50;;;2.70;;
65238;SDS011;51827;51.186;6.926;2022-08-11T04:10:10;3.78;;;2.40;;
65238;SDS011;51827;51.186;6.926;2022-08-11T04:14:09;3.63;;;2.33;;
65238;SDS011;51827;51.186;6.926;2022-08-11T04:22:06;4.90;;;2.67;;
65238;SDS011;51827;51.186;6.926;2022-08-11T04:23:45;6.82;;;2.70;;
65238;SDS011;51827;51.186;6.926;2022-08-11T04:28:33;7.68;;;2.50;;
65238;SDS011;51827;51.186;6.926;2022-08-11T04:29:49;9.20;;;2.80;;
65238;SDS011;51827;51.186;6.926;2022-08-11T04:34:22;7.03;;;2.80;;
65238;SDS011;51827;51.186;6.926;2022-08-11T04:37:32;5.82;;;2.85;;
65238;SDS011;51827;51.186;6.926;2022-08-11T04:47:09;4.80;;;2.80;;
65238;SDS011;51827;51.186;6.926;2022-08-11T04:56:52;8.23;;;3.13;;
65238;SDS011;51827;51.186;6.926;2022-08-11T04:59:55;8.98;;;3.03;;
65238;SDS011;51827;51.186;6.926;2022-08-11T05:13:44;5.75;;;3.05;;
65238;SDS011;51827;51.186;6.926;2022-08-11T05:14:52;11.15;;;3.30;;
65238;SDS011;51827;51.186;6.926;2022-08-11T05:15:53;7.43;;;3.45;;
65238;SDS011;51827;51.186;6.926;2022-08-11T05:16:57;7.00;;;2.78;;
65238;SDS011;51827;51.186;6.926;2022-08-11T05:18:07;6.82;;;2.90;;
65238;SDS011;51827;51.186;6.926;2022-08-11T05:19:16;7.00;;;2.90;;
65238;SDS011;51827;51.186;6.926;2022-08-11T05:20:18;6.63;;;3.13;;
65238;SDS011;51827;51.186;6.926;2022-08-11T05:21:22;7.93;;;2.80;;
65238;SDS011;51827;51.186;6.926;2022-08-11T05:22:26;9.02;;;3.00;;
65238;SDS011;51827;51.186;6.926;2022-08-11T05:23:28;6.97;;;2.88;;
65238;SDS011;51827;51.186;6.926;2022-08-11T05:24:30;5.57;;;3.28;;
65238;SDS011;51827;51.186;6.926;2022-08-11T05:25:38;6.50;;;3.10;;
65238;SDS011;51827;51.186;6.926;2022-08-11T05:26:44;5.35;;;3.05;;
65238;SDS011;51827;51.186;6.926;2022-08-11T05:28:02;6.85;;;2.90;;
65238;SDS011;51827;51.186;6.926;2022-08-11T05:29:23;6.55;;;2.72;;
65238;SDS011;51827;51.186;6.926;2022-08-11T05:30:30;8.55;;;3.40;;
65238;SDS011;51827;51.186;6.926;2022-08-11T05:31:32;9.75;;;3.47;;
65238;SDS011;51827;51.186;6.926;2022-08-11T05:32:36;8.95;;;2.80;;
65238;SDS011;51827;51.186;6.926;2022-08-11T05:33:49;9.32;;;3.30;;
65238;SDS011;51827;51.186;6.926;2022-08-11T05:34:51;6.03;;;2.90;;
65238;SDS011;51827;51.186;6.926;2022-08-11T05:36:11;5.90;;;2.78;;
65238;SDS011;51827;51.186;6.926;2022-08-11T05:37:24;6.97;;;2.83;;
65238;SDS011;51827;51.186;6.926;2022-08-11T05:38:34;7.05;;;2.88;;
65238;SDS011;51827;51.186;6.926;2022-08-11T05:39:40;7.82;;;2.65;;
65238;SDS011;51827;51.186;6.926;2022-08-11T05:40:50;10.02;;;2.97;;
65238;SDS011;51827;51.186;6.926;2022-08-11T05:41:55;4.40;;;2.72;;
65238;SDS011;51827;51.186;6.926;2022-08-11T05:42:58;4.40;;;2.70;;
65238;SDS011;51827;51.186;6.926;2022-08-11T05:44:01;6.28;;;2.80;;
65238;SDS011;51827;51.186;6.926;2022-08-11T05:45:03;5.18;;;2.78;;
65238;SDS011;51827;51.186;6.926;2022-08-11T05:46:10;5.15;;;2.70;;
65238;SDS011;51827;51.186;6.926;2022-08-11T05:47:10;11.40;;;3.37;;
65238;SDS011;51827;51.186;6.926;2022-08-11T05:48:19;5.85;;;2.42;;
65238;SDS011;51827;51.186;6.926;2022-08-11T05:50:22;5.50;;;2.72;;
65238;SDS011;51827;51.186;6.926;2022-08-11T05:52:32;6.85;;;2.97;;
65238;SDS011;51827;51.186;6.926;2022-08-11T05:53:32;6.15;;;2.90;;
65238;SDS011;51827;51.186;6.926;2022-08-11T05:54:36;4.07;;;2.50;;
65238;SDS011;51827;51.186;6.926;2022-08-11T05:55:38;7.35;;;2.67;;
65238;SDS011;51827;51.186;6.926;2022-08-11T05:56:56;4.22;;;2.83;;
65238;SDS011;51827;51.186;6.926;2022-08-11T05:58:03;5.97;;;3.13;;
65238;SDS011;51827;51.186;6.926;2022-08-11T05:59:05;6.03;;;2.92;;
65238;SDS011;51827;51.186;6.926;2022-08-11T06:00:12;5.50;;;2.60;;
65238;SDS011;51827;51.186;6.926;2022-08-11T06:01:19;5.35;;;2.40;;
65238;SDS011;51827;51.186;6.926;2022-08-11T06:02:24;4.97;;;2.45;;
65238;SDS011;51827;51.186;6.926;2022-08-11T06:03:26;4.35;;;2.63;;
65238;SDS011;51827;51.186;6.926;2022-08-11T06:04:28;6.97;;;2.80;;
65238;SDS011;51827;51.186;6.926;2022-08-11T06:05:33;5.78;;;2.70;;
65238;SDS011;51827;51.186;6.926;2022-08-11T06:06:35;6.65;;;3.10;;
65238;SDS011;51827;51.186;6.926;2022-08-11T06:07:36;8.13;;;3.00;;
65238;SDS011;51827;51.186;6.926;2022-08-11T06:08:37;4.57;;;2.70;;
65238;SDS011;51827;51.186;6.926;2022-08-11T06:09:47;4.80;;;2.63;;
65238;SDS011;51827;51.186;6.926;2022-08-11T06:10:49;5.45;;;2.70;;
65238;SDS011;51827;51.186;6.926;2022-08-11T06:11:49;4.60;;;2.30;;
65238;SDS011;51827;51.186;6.926;2022-08-11T06:12:53;5.28;;;2.92;;
65238;SDS011;51827;51.186;6.926;2022-08-11T06:13:56;5.93;;;2.78;;
65238;SDS011;51827;51.186;6.926;2022-08-11T06:14:57;5.63;;;2.90;;
65238;SDS011;51827;51.186;6.926;2022-08-11T06:16:01;6.95;;;2.80;;
65238;SDS011;51827;51.186;6.926;2022-08-11T06:17:02;6.50;;;2.38;;
65238;SDS011;51827;51.186;6.926;2022-08-11T06:18:03;6.38;;;2.97;;
65238;SDS011;51827;51.186;6.926;2022-08-11T06:19:04;4.80;;;2.63;;
65238;SDS011;51827;51.186;6.926;2022-08-11T06:21:08;5.75;;;2.67;;
65238;SDS011;51827;51.186;6.926;2022-08-11T06:22:10;6.43;;;3.05;;
65238;SDS011;51827;51.186;6.926;2022-08-11T06:23:11;4.50;;;2.40;;
65238;SDS011;51827;51.186;6.926;2022-08-11T06:24:13;3.63;;;2.50;;
65238;SDS011;51827;51.186;6.926;2022-08-11T06:25:14;4.82;;;2.60;;
65238;SDS011;51827;51.186;6.926;2022-08-11T06:26:16;4.28;;;2.70;;
65238;SDS011;51827;51.186;6.926;2022-08-11T06:27:23;5.70;;;2.83;;
65238;SDS011;51827;51.186;6.926;2022-08-11T06:28:31;5.68;;;2.78;;
65238;SDS011;51827;51.186;6.926;2022-08-11T06:29:35;5.72;;;2.63;;
65238;SDS011;51827;51.186;6.926;2022-08-11T06:30:38;4.60;;;2.55;;
65238;SDS011;51827;51.186;6.926;2022-08-11T06:31:40;5.72;;;2.70;;
65238;SDS011;51827;51.186;6.926;2022-08-11T06:32:41;3.47;;;2.60;;
65238;SDS011;51827;51.186;6.926;2022-08-11T06:36:09;5.43;;;2.85;;
65238;SDS011;51827;51.186;6.926;2022-08-11T06:41:21;5.60;;;2.80;;
65238;SDS011;51827;51.186;6.926;2022-08-11T06:42:47;6.00;;;2.67;;
65238;SDS011;51827;51.186;6.926;2022-08-11T06:46:33;4.68;;;2.50;;
65238;SDS011;51827;51.186;6.926;2022-08-11T06:47:35;5.85;;;2.67;;
65238;SDS011;51827;51.186;6.926;2022-08-11T06:48:40;5.53;;;2.58;;
65238;SDS011;51827;51.186;6.926;2022-08-11T06:49:43;7.53;;;3.00;;
65238;SDS011;51827;51.186;6.926;2022-08-11T06:50:51;5.28;;;2.50;;
65238;SDS011;51827;51.186;6.926;2022-08-11T06:51:58;5.32;;;2.45;;
65238;SDS011;51827;51.186;6.926;2022-08-11T06:53:00;3.40;;;2.40;;
65238;SDS011;51827;51.186;6.926;2022-08-11T06:54:02;6.43;;;2.72;;
65238;SDS011;51827;51.186;6.926;2022-08-11T06:55:07;4.95;;;2.67;;
65238;SDS011;51827;51.186;6.926;2022-08-11T06:56:30;4.80;;;3.03;;
65238;SDS011;51827;51.186;6.926;2022-08-11T06:57:33;4.70;;;2.50;;
65238;SDS011;51827;51.186;6.926;2022-08-11T06:58:36;4.72;;;2.90;;
65238;SDS011;51827;51.186;6.926;2022-08-11T06:59:39;5.75;;;2.50;;
65238;SDS011;51827;51.186;6.926;2022-08-11T07:00:40;4.25;;;2.47;;
65238;SDS011;51827;51.186;6.926;2022-08-11T07:02:57;6.10;;;2.42;;
65238;SDS011;51827;51.186;6.926;2022-08-11T07:04:05;6.95;;;2.85;;
65238;SDS011;51827;51.186;6.926;2022-08-11T07:06:56;4.07;;;2.55;;
65238;SDS011;51827;51.186;6.926;2022-08-11T07:12:29;5.07;;;2.88;;
65238;SDS011;51827;51.186;6.926;2022-08-11T07:13:37;5.00;;;2.60;;
65238;SDS011;51827;51.186;6.926;2022-08-11T07:14:45;3.90;;;2.53;;
65238;SDS011;51827;51.186;6.926;2022-08-11T07:15:49;4.80;;;2.35;;
65238;SDS011;51827;51.186;6.926;2022-08-11T07:16:54;5.85;;;2.88;;
65238;SDS011;51827;51.186;6.926;2022-08-11T07:17:57;6.65;;;2.65;;
65238;SDS011;51827;51.186;6.926;2022-08-11T07:19:04;6.55;;;2.95;;
65238;SDS011;51827;51.186;6.926;2022-08-11T07:20:06;4.85;;;2.50;;
65238;SDS011;51827;51.186;6.926;2022-08-11T07:21:28;6.70;;;2.83;;
65238;SDS011;51827;51.186;6.926;2022-08-11T07:22:30;3.92;;;2.50;;
65238;SDS011;51827;51.186;6.926;2022-08-11T07:23:33;5.18;;;2.50;;
65238;SDS011;51827;51.186;6.926;2022-08-11T07:24:39;5.07;;;2.53;;
65238;SDS011;51827;51.186;6.926;2022-08-11T07:25:46;5.50;;;2.92;;
65238;SDS011;51827;51.186;6.926;2022-08-11T07:26:52;4.93;;;2.60;;
65238;SDS011;51827;51.186;6.926;2022-08-11T07:28:02;4.47;;;2.58;;
65238;SDS011;51827;51.186;6.926;2022-08-11T07:29:11;4.05;;;2.42;;
65238;SDS011;51827;51.186;6.926;2022-08-11T07:30:12;4.70;;;2.63;;
65238;SDS011;51827;51.186;6.926;2022-08-11T07:31:14;5.38;;;2.45;;
65238;SDS011;51827;51.186;6.926;2022-08-11T07:32:26;4.60;;;2.50;;
65238;SDS011;51827;51.186;6.926;2022-08-11T07:33:31;5.82;;;2.65;;
65238;SDS011;51827;51.186;6.926;2022-08-11T07:34:59;6.20;;;2.65;;
65238;SDS011;51827;51.186;6.926;2022-08-11T07:36:06;4.30;;;2.38;;
65238;SDS011;51827;51.186;6.926;2022-08-11T07:37:09;4.00;;;2.42;;
65238;SDS011;51827;51.186;6.926;2022-08-11T07:38:17;4.68;;;2.50;;
65238;SDS011;51827;51.186;6.926;2022-08-11T07:39:27;3.10;;;2.20;;
65238;SDS011;51827;51.186;6.926;2022-08-11T07:40:31;4.40;;;2.22;;
65238;SDS011;51827;51.186;6.926;2022-08-11T07:41:33;5.10;;;2.88;;
65238;SDS011;51827;51.186;6.926;2022-08-11T07:42:33;4.25;;;2.28;;
65238;SDS011;51827;51.186;6.926;2022-08-11T07:43:34;3.28;;;2.28;;
65238;SDS011;51827;51.186;6.926;2022-08-11T07:44:35;5.03;;;2.65;;
65238;SDS011;51827;51.186;6.926;2022-08-11T07:45:36;5.82;;;2.83;;
65238;SDS011;51827;51.186;6.926;2022-08-11T07:46:42;3.75;;;2.30;;
65238;SDS011;51827;51.186;6.926;2022-08-11T07:47:45;5.75;;;2.55;;
65238;SDS011;51827;51.186;6.926;2022-08-11T07:48:46;6.35;;;2.90;;
65238;SDS011;51827;51.186;6.926;2022-08-11T07:49:47;4.85;;;2.92;;
65238;SDS011;51827;51.186;6.926;2022-08-11T07:50:50;4.65;;;2.45;;
65238;SDS011;51827;51.186;6.926;2022-08-11T07:52:52;4.27;;;2.53;;
65238;SDS011;51827;51.186;6.926;2022-08-11T07:53:53;4.28;;;2.33;;
65238;SDS011;51827;51.186;6.926;2022-08-11T07:54:54;4.63;;;2.40;;
65238;SDS011;51827;51.186;6.926;2022-08-11T07:55:59;4.88;;;2.75;;
65238;SDS011;51827;51.186;6.926;2022-08-11T07:57:01;3.80;;;2.35;;
65238;SDS011;51827;51.186;6.926;2022-08-11T07:58:02;3.80;;;2.67;;
65238;SDS011;51827;51.186;6.926;2022-08-11T07:59:04;4.22;;;2.45;;
65238;SDS011;51827;51.186;6.926;2022-08-11T08:00:05;3.90;;;2.60;;
65238;SDS011;51827;51.186;6.926;2022-08-11T08:02:07;4.20;;;2.50;;
65238;SDS011;51827;51.186;6.926;2022-08-11T08:03:09;4.53;;;2.70;;
65238;SDS011;51827;51.186;6.926;2022-08-11T08:04:11;3.42;;;2.40;;
65238;SDS011;51827;51.186;6.926;2022-08-11T08:05:14;4.97;;;2.40;;
65238;SDS011;51827;51.186;6.926;2022-08-11T08:06:16;3.47;;;2.15;;
65238;SDS011;51827;51.186;6.926;2022-08-11T08:07:18;4.75;;;2.45;;
65238;SDS011;51827;51.186;6.926;2022-08-11T08:08:22;5.13;;;2.45;;
65238;SDS011;51827;51.186;6.926;2022-08-11T08:09:23;3.75;;;2.55;;
65238;SDS011;51827;51.186;6.926;2022-08-11T08:11:25;4.30;;;2.50;;
65238;SDS011;51827;51.186;6.926;2022-08-11T08:12:26;5.05;;;2.60;;
65238;SDS011;51827;51.186;6.926;2022-08-11T08:13:27;6.22;;;2.72;;
65238;SDS011;51827;51.186;6.926;2022-08-11T08:15:29;3.20;;;1.90;;
65238;SDS011;51827;51.186;6.926;2022-08-11T08:16:30;3.63;;;2.10;;
65238;SDS011;51827;51.186;6.926;2022-08-11T08:17:31;3.47;;;2.38;;
65238;SDS011;51827;51.186;6.926;2022-08-11T08:18:33;4.63;;;2.30;;
65238;SDS011;51827;51.186;6.926;2022-08-11T08:19:35;5.22;;;2.42;;
65238;SDS011;51827;51.186;6.926;2022-08-11T08:20:37;3.42;;;2.50;;
65238;SDS011;51827;51.186;6.926;2022-08-11T08:21:43;3.90;;;2.30;;
65238;SDS011;51827;51.186;6.926;2022-08-11T08:22:45;4.00;;;2.53;;
65238;SDS011;51827;51.186;6.926;2022-08-11T08:23:49;3.30;;;2.20;;
65238;SDS011;51827;51.186;6.926;2022-08-11T08:24:50;4.05;;;2.30;;
65238;SDS011;51827;51.186;6.926;2022-08-11T08:26:51;3.97;;;2.27;;
65238;SDS011;51827;51.186;6.926;2022-08-11T08:27:52;5.05;;;2.30;;
65238;SDS011;51827;51.186;6.926;2022-08-11T08:28:54;4.15;;;2.10;;
65238;SDS011;51827;51.186;6.926;2022-08-11T08:29:56;4.03;;;2.30;;
65238;SDS011;51827;51.186;6.926;2022-08-11T08:30:57;4.30;;;2.45;;
65238;SDS011;51827;51.186;6.926;2022-08-11T08:31:58;3.80;;;2.20;;
65238;SDS011;51827;51.186;6.926;2022-08-11T08:33:03;4.10;;;2.33;;
65238;SDS011;51827;51.186;6.926;2022-08-11T08:34:04;3.53;;;2.13;;
65238;SDS011;51827;51.186;6.926;2022-08-11T08:35:04;3.33;;;2.47;;
65238;SDS011;51827;51.186;6.926;2022-08-11T08:36:06;4.63;;;2.50;;
65238;SDS011;51827;51.186;6.926;2022-08-11T08:37:06;4.03;;;2.60;;
65238;SDS011;51827;51.186;6.926;2022-08-11T08:38:07;3.35;;;2.22;;
65238;SDS011;51827;51.186;6.926;2022-08-11T08:39:07;4.00;;;2.50;;
65238;SDS011;51827;51.186;6.926;2022-08-11T08:40:08;3.70;;;2.28;;
65238;SDS011;51827;51.186;6.926;2022-08-11T08:41:09;3.28;;;2.20;;
65238;SDS011;51827;51.186;6.926;2022-08-11T08:43:13;4.00;;;2.35;;
65238;SDS011;51827;51.186;6.926;2022-08-11T08:44:15;4.47;;;2.38;;
65238;SDS011;51827;51.186;6.926;2022-08-11T08:45:18;3.83;;;2.40;;
65238;SDS011;51827;51.186;6.926;2022-08-11T08:46:20;3.08;;;1.98;;
65238;SDS011;51827;51.186;6.926;2022-08-11T08:47:25;3.38;;;2.22;;
65238;SDS011;51827;51.186;6.926;2022-08-11T08:48:27;3.25;;;2.10;;
65238;SDS011;51827;51.186;6.926;2022-08-11T08:49:33;3.75;;;2.03;;
65238;SDS011;51827;51.186;6.926;2022-08-11T08:50:37;3.55;;;2.13;;
65238;SDS011;51827;51.186;6.926;2022-08-11T08:51:42;3.20;;;2.10;;
65238;SDS011;51827;51.186;6.926;2022-08-11T08:52:46;5.43;;;2.30;;
65238;SDS011;51827;51.186;6.926;2022-08-11T08:53:52;3.38;;;2.53;;
65238;SDS011;51827;51.186;6.926;2022-08-11T08:55:55;3.90;;;2.20;;
65238;SDS011;51827;51.186;6.926;2022-08-11T08:56:58;3.38;;;2.35;;
65238;SDS011;51827;51.186;6.926;2022-08-11T08:59:01;4.07;;;2.10;;
65238;SDS011;51827;51.186;6.926;2022-08-11T09:00:03;4.38;;;2.20;;
65238;SDS011;51827;51.186;6.926;2022-08-11T09:01:05;3.00;;;2.15;;
65238;SDS011;51827;51.186;6.926;2022-08-11T09:02:08;3.60;;;2.33;;
65238;SDS011;51827;51.186;6.926;2022-08-11T09:03:09;3.72;;;2.22;;
65238;SDS011;51827;51.186;6.926;2022-08-11T09:04:10;3.90;;;2.10;;
65238;SDS011;51827;51.186;6.926;2022-08-11T09:05:13;3.05;;;2.20;;
65238;SDS011;51827;51.186;6.926;2022-08-11T09:06:16;4.20;;;2.30;;
65238;SDS011;51827;51.186;6.926;2022-08-11T09:07:17;3.35;;;2.30;;
65238;SDS011;51827;51.186;6.926;2022-08-11T09:08:21;4.15;;;2.25;;
65238;SDS011;51827;51.186;6.926;2022-08-11T09:09:22;4.53;;;2.17;;
65238;SDS011;51827;51.186;6.926;2022-08-11T09:10:23;3.38;;;2.13;;
65238;SDS011;51827;51.186;6.926;2022-08-11T09:11:24;3.40;;;2.30;;
65238;SDS011;51827;51.186;6.926;2022-08-11T09:12:28;3.15;;;2.10;;
65238;SDS011;51827;51.186;6.926;2022-08-11T09:13:30;4.65;;;2.05;;
65238;SDS011;51827;51.186;6.926;2022-08-11T09:14:36;4.43;;;2.20;;
65238;SDS011;51827;51.186;6.926;2022-08-11T09:15:38;4.10;;;2.10;;
65238;SDS011;51827;51.186;6.926;2022-08-11T09:16:39;4.10;;;2.20;;
65238;SDS011;51827;51.186;6.926;2022-08-11T09:19:12;4.53;;;2.20;;
65238;SDS011;51827;51.186;6.926;2022-08-11T09:20:17;3.47;;;2.05;;
65238;SDS011;51827;51.186;6.926;2022-08-11T09:21:17;3.33;;;2.10;;
65238;SDS011;51827;51.186;6.926;2022-08-11T09:22:18;2.95;;;2.10;;
65238;SDS011;51827;51.186;6.926;2022-08-11T09:23:19;2.65;;;2.00;;
65238;SDS011;51827;51.186;6.926;2022-08-11T09:24:19;2.88;;;2.00;;
65238;SDS011;51827;51.186;6.926;2022-08-11T09:25:20;3.58;;;1.95;;
65238;SDS011;51827;51.186;6.926;2022-08-11T09:26:21;2.80;;;2.00;;
65238;SDS011;51827;51.186;6.926;2022-08-11T09:27:22;3.28;;;2.22;;
65238;SDS011;51827;51.186;6.926;2022-08-11T09:28:23;4.18;;;2.20;;
65238;SDS011;51827;51.186;6.926;2022-08-11T09:29:26;3.20;;;2.13;;
65238;SDS011;51827;51.186;6.926;2022-08-11T09:30:28;3.30;;;2.15;;
65238;SDS011;51827;51.186;6.926;2022-08-11T09:31:31;4.28;;;2.10;;
65238;SDS011;51827;51.186;6.926;2022-08-11T09:32:33;2.97;;;2.08;;
65238;SDS011;51827;51.186;6.926;2022-08-11T09:33:35;3.22;;;2.13;;
65238;SDS011;51827;51.186;6.926;2022-08-11T09:34:35;3.40;;;2.10;;
65238;SDS011;51827;51.186;6.926;2022-08-11T09:35:37;3.78;;;2.50;;
65238;SDS011;51827;51.186;6.926;2022-08-11T09:36:39;3.45;;;2.20;;
65238;SDS011;51827;51.186;6.926;2022-08-11T09:37:41;2.60;;;1.90;;
65238;SDS011;51827;51.186;6.926;2022-08-11T09:38:42;4.05;;;2.45;;
65238;SDS011;51827;51.186;6.926;2022-08-11T09:39:44;3.13;;;2.10;;
65238;SDS011;51827;51.186;6.926;2022-08-11T09:40:45;3.30;;;2.13;;
65238;SDS011;51827;51.186;6.926;2022-08-11T09:41:47;3.42;;;2.20;;
65238;SDS011;51827;51.186;6.926;2022-08-11T09:43:49;3.80;;;2.25;;
65238;SDS011;51827;51.186;6.926;2022-08-11T09:44:50;2.70;;;2.00;;
65238;SDS011;51827;51.186;6.926;2022-08-11T09:45:51;4.90;;;2.08;;
65238;SDS011;51827;51.186;6.926;2022-08-11T09:46:52;3.47;;;1.95;;
65238;SDS011;51827;51.186;6.926;2022-08-11T09:47:57;3.17;;;2.17;;
65238;SDS011;51827;51.186;6.926;2022-08-11T09:48:59;2.85;;;2.05;;
65238;SDS011;51827;51.186;6.926;2022-08-11T09:50:01;2.88;;;2.00;;
65238;SDS011;51827;51.186;6.926;2022-08-11T09:51:02;3.28;;;2.20;;
65238;SDS011;51827;51.186;6.926;2022-08-11T09:52:04;3.72;;;2.00;;
65238;SDS011;51827;51.186;6.926;2022-08-11T09:53:04;3.40;;;2.03;;
65238;SDS011;51827;51.186;6.926;2022-08-11T09:54:05;3.05;;;2.05;;
65238;SDS011;51827;51.186;6.926;2022-08-11T09:55:06;3.83;;;2.03;;
65238;SDS011;51827;51.186;6.926;2022-08-11T09:56:17;4.10;;;1.92;;
65238;SDS011;51827;51.186;6.926;2022-08-11T09:57:20;3.15;;;2.08;;
65238;SDS011;51827;51.186;6.926;2022-08-11T09:58:21;3.08;;;2.05;;
65238;SDS011;51827;51.186;6.926;2022-08-11T09:59:21;2.97;;;1.90;;
65238;SDS011;51827;51.186;6.926;2022-08-11T10:00:27;3.38;;;2.15;;
65238;SDS011;51827;51.186;6.926;2022-08-11T10:01:30;4.00;;;2.13;;
65238;SDS011;51827;51.186;6.926;2022-08-11T10:02:33;3.70;;;2.05;;
65238;SDS011;51827;51.186;6.926;2022-08-11T10:03:40;3.30;;;2.00;;
65238;SDS011;51827;51.186;6.926;2022-08-11T10:04:42;3.10;;;2.10;;
65238;SDS011;51827;51.186;6.926;2022-08-11T10:05:45;2.50;;;1.90;;
65238;SDS011;51827;51.186;6.926;2022-08-11T10:06:48;3.90;;;2.10;;
65238;SDS011;51827;51.186;6.926;2022-08-11T10:07:51;3.13;;;2.10;;
65238;SDS011;51827;51.186;6.926;2022-08-11T10:08:53;2.83;;;1.80;;
65238;SDS011;51827;51.186;6.926;2022-08-11T10:09:55;2.95;;;2.03;;
65238;SDS011;51827;51.186;6.926;2022-08-11T10:10:58;2.75;;;1.80;;
65238;SDS011;51827;51.186;6.926;2022-08-11T10:11:59;4.43;;;1.80;;
65238;SDS011;51827;51.186;6.926;2022-08-11T10:13:02;3.50;;;2.35;;
65238;SDS011;51827;51.186;6.926;2022-08-11T10:14:05;3.75;;;2.00;;
65238;SDS011;51827;51.186;6.926;2022-08-11T10:15:07;2.83;;;1.98;;
65238;SDS011;51827;51.186;6.926;2022-08-11T10:16:09;2.80;;;2.00;;